Impacts METAR Board
IDs:

KDEN - Denver Intl, CO, US

Updated at: 1700 UTC 03 Dec 2021
Potential Impact None Slight Moderate High
Time 03/05Z 03/06Z 03/07Z 03/08Z 03/09Z 03/10Z 03/11Z 03/12Z 03/13Z 03/14Z 03/15Z 03/16Z 03/17Z
Temp51 52 51 49 48 44 46 39 36 36 39 42 47
Dewpt17 17 17 16 16 15 15 18 25 28 28 30 30
Altim30.07 30.06 30.05 30.04 30.05 30.06 30.06 30.12 30.17 30.23 30.24 30.24 30.22
VIS10 10 10 10 10 10 10 10 10 10 10 10 10
CIG-- -- -- -- -- -- -- -- -- -- -- -- --
CoverCLRCLRCLRCLRCLRCLRCLRCLRCLRFEWFEWSCTSCT
FltCatVFRVFRVFRVFRVFRVFRVFRVFRVFRVFRVFRVFRVFR
WX--------------------------
WDir23022023022021020021070100280270210160
WSpd10 12 11 10 12 8 7 11 8 4 3 3 6
WGst-- -- -- -- -- -- -- -- -- -- -- -- --
Raw hourly METARs
KDEN 030453Z 23010KT 10SM CLR 11/M08 A3007 RMK AO2 SLP132 T01061083
KDEN 030553Z 22012KT 10SM CLR 11/M08 A3006 RMK AO2 SLP121 T01111083 10156 20100 50001
KDEN 030653Z 23011KT 10SM CLR 11/M08 A3005 RMK AO2 SLP119 T01061083 402220061
KDEN 030753Z 22010KT 10SM CLR 09/M09 A3004 RMK AO2 SLP117 T00941089
KDEN 030853Z 21012KT 10SM CLR 09/M09 A3005 RMK AO2 SLP121 T00891089 55002
KDEN 030953Z 20008KT 10SM CLR 07/M09 A3006 RMK AO2 SLP130 T00671094
KDEN 031053Z 21007KT 10SM CLR 08/M09 A3006 RMK AO2 SLP130 T00781094
KDEN 031153Z 07011KT 10SM CLR 04/M08 A3012 RMK AO2 SLP168 T00391078 10111 20028 53021
KDEN 031253Z 10008KT 10SM CLR 02/M04 A3017 RMK AO2 SLP193 T00221039
KDEN 031353Z 28004KT 10SM FEW220 02/M02 A3023 RMK AO2 SLP219 T00221022
KDEN 031453Z 27003KT 10SM FEW220 04/M02 A3024 RMK AO2 SLP222 T00391022 51034
KDEN 031553Z 21003KT 10SM SCT220 06/M01 A3024 RMK AO2 SLP216 T00561011
KDEN 031653Z 16006KT 10SM FEW140 SCT220 08/M01 A3022 RMK AO2 SLP205 T00831011



Page loaded:  17:05 UTC  |   09:05 AM Pacific  |   10:05 AM Mountain  |   11:05 AM Central  |   12:05 PM Eastern

 

ADVISORIES

FORECASTS

FORECASTS

OBSERVATIONS

USER TOOLS

ABOUT US